Time;durP1;ratioP1;P1;durP2;ratioP2;P2;SDS_P1;SDS_P2;PMS_P1;PMS_P2;Temp;Humidity;BMP_temperature;BMP_pressure;BME280_temperature;BME280_humidity;BME280_pressure;Samples;Min_cycle;Max_cycle;Signal;HPM_P1;HPM_P2
2023/05/25 00:00:11;;;;;;;9.07;3.28;;;;;;;;;;5029826;28;20056;-60
2023/05/25 00:02:38;;;;;;;6.93;3.00;;;;;;;;;;5039122;28;20052;-60
2023/05/25 00:05:07;;;;;;;5.97;2.90;;;;;;;;;;5040993;28;20045;-59
2023/05/25 00:07:33;;;;;;;10.23;3.97;;;;;;;;;;5030061;28;20041;-58
2023/05/25 00:09:59;;;;;;;6.22;2.80;;;;;;;;;;5016587;28;20037;-58
2023/05/25 00:12:25;;;;;;;11.13;3.28;;;;;;;;;;5029750;28;20033;-59
2023/05/25 00:14:52;;;;;;;10.98;3.40;;;;;;;;;;5022618;28;20029;-58
2023/05/25 00:17:18;;;;;;;5.93;3.30;;;;;;;;;;5044679;28;20037;-59
2023/05/25 00:19:44;;;;;;;7.45;3.10;;;;;;;;;;5039886;28;20037;-58
2023/05/25 00:22:11;;;;;;;6.90;3.17;;;;;;;;;;5026762;28;20500;-58
2023/05/25 00:24:38;;;;;;;8.13;3.63;;;;;;;;;;5034237;28;20046;-59
2023/05/25 00:27:08;;;;;;;6.95;3.30;;;;;;;;;;5037386;28;20061;-59
2023/05/25 00:29:35;;;;;;;9.20;3.60;;;;;;;;;;5037066;28;20391;-60
2023/05/25 00:32:01;;;;;;;7.85;3.22;;;;;;;;;;5033038;28;20041;-59
2023/05/25 00:34:27;;;;;;;8.70;3.40;;;;;;;;;;5032219;28;20040;-58
2023/05/25 00:36:54;;;;;;;8.57;3.38;;;;;;;;;;5046182;28;20044;-59
2023/05/25 00:39:20;;;;;;;7.15;2.60;;;;;;;;;;5027208;28;20044;-59
2023/05/25 00:41:48;;;;;;;10.45;3.10;;;;;;;;;;5023450;28;20514;-59
2023/05/25 00:44:15;;;;;;;7.88;3.55;;;;;;;;;;5035377;28;20049;-58
2023/05/25 00:46:46;;;;;;;10.73;4.18;;;;;;;;;;5037576;28;20052;-58
2023/05/25 00:49:13;;;;;;;9.30;3.50;;;;;;;;;;5039125;28;20048;-58
2023/05/25 00:51:40;;;;;;;5.65;2.97;;;;;;;;;;5041285;28;20037;-58
2023/05/25 00:54:07;;;;;;;10.35;3.70;;;;;;;;;;5018398;28;20038;-58
2023/05/25 00:56:38;;;;;;;9.43;3.22;;;;;;;;;;5022054;28;20049;-58
2023/05/25 00:59:06;;;;;;;11.25;3.60;;;;;;;;;;5030609;28;20057;-59
2023/05/25 01:01:38;;;;;;;8.32;3.30;;;;;;;;;;5023363;28;20040;-59
2023/05/25 01:04:08;;;;;;;9.45;3.35;;;;;;;;;;5038731;28;20053;-59
2023/05/25 01:06:38;;;;;;;8.00;3.35;;;;;;;;;;5041112;28;20044;-61
2023/05/25 01:09:07;;;;;;;7.78;3.28;;;;;;;;;;5024415;28;20037;-60
2023/05/25 01:11:40;;;;;;;11.02;3.33;;;;;;;;;;5041173;28;20049;-60
2023/05/25 01:14:07;;;;;;;13.40;4.03;;;;;;;;;;5022991;28;20029;-61
2023/05/25 01:16:34;;;;;;;5.00;3.35;;;;;;;;;;5029783;28;20521;-60
2023/05/25 01:19:01;;;;;;;14.80;3.92;;;;;;;;;;5040461;28;20042;-60
2023/05/25 01:21:46;;;;;;;11.65;3.60;;;;;;;;;;5032792;28;20040;-61
2023/05/25 01:24:21;;;;;;;8.75;3.50;;;;;;;;;;5003965;28;20060;-60
2023/05/25 01:27:06;;;;;;;9.45;3.55;;;;;;;;;;5011714;28;20038;-61
2023/05/25 01:29:34;;;;;;;8.73;3.35;;;;;;;;;;5041898;28;20068;-60
2023/05/25 01:32:02;;;;;;;10.90;3.40;;;;;;;;;;5039880;28;20037;-61
2023/05/25 01:34:30;;;;;;;7.57;3.25;;;;;;;;;;5039248;28;20025;-61
2023/05/25 01:36:56;;;;;;;9.00;4.03;;;;;;;;;;5014600;28;20871;-61
2023/05/25 01:39:22;;;;;;;9.25;3.65;;;;;;;;;;5038014;28;20486;-60
2023/05/25 01:41:48;;;;;;;10.75;3.80;;;;;;;;;;5027291;28;20029;-60
2023/05/25 01:44:15;;;;;;;12.57;3.50;;;;;;;;;;5041090;28;20059;-61
2023/05/25 01:46:41;;;;;;;10.00;3.63;;;;;;;;;;5039008;28;20052;-60
2023/05/25 01:49:49;;;;;;;8.30;3.75;;;;;;;;;;5031658;28;20498;-60
2023/05/25 01:52:22;;;;;;;8.57;3.58;;;;;;;;;;5043186;28;20040;-60
2023/05/25 01:54:56;;;;;;;5.60;3.10;;;;;;;;;;5036660;28;20491;-60
2023/05/25 01:57:25;;;;;;;9.68;3.65;;;;;;;;;;5021960;28;20045;-60
2023/05/25 01:59:56;;;;;;;7.63;4.20;;;;;;;;;;5036773;28;20056;-60
2023/05/25 02:02:23;;;;;;;9.38;3.70;;;;;;;;;;5024574;28;20029;-60
2023/05/25 02:04:53;;;;;;;8.20;3.55;;;;;;;;;;5017121;28;20033;-60
2023/05/25 02:07:21;;;;;;;10.73;4.03;;;;;;;;;;5004646;28;20037;-60
2023/05/25 02:09:47;;;;;;;9.80;3.60;;;;;;;;;;5028237;28;20060;-60
2023/05/25 02:12:13;;;;;;;7.93;3.95;;;;;;;;;;5039640;28;20049;-60
2023/05/25 02:14:40;;;;;;;12.88;4.22;;;;;;;;;;5014094;28;20034;-60
2023/05/25 02:17:07;;;;;;;7.70;3.63;;;;;;;;;;5035924;28;20070;-60
2023/05/25 02:19:34;;;;;;;8.35;3.40;;;;;;;;;;5033659;28;20032;-60
2023/05/25 02:22:00;;;;;;;7.93;3.55;;;;;;;;;;5029043;28;20037;-61
2023/05/25 02:24:27;;;;;;;14.32;4.05;;;;;;;;;;5010596;28;20040;-61
2023/05/25 02:26:53;;;;;;;12.50;4.18;;;;;;;;;;5034217;28;20415;-61
2023/05/25 02:29:20;;;;;;;10.50;4.13;;;;;;;;;;5015020;28;20395;-60
2023/05/25 02:31:46;;;;;;;10.27;4.00;;;;;;;;;;5039393;28;20064;-61
2023/05/25 02:34:12;;;;;;;9.95;3.83;;;;;;;;;;5021412;28;20048;-60
2023/05/25 02:36:42;;;;;;;8.75;4.25;;;;;;;;;;5022861;28;20064;-61
2023/05/25 02:39:09;;;;;;;8.52;4.05;;;;;;;;;;5036238;28;20499;-61
2023/05/25 02:41:37;;;;;;;7.93;3.83;;;;;;;;;;5039086;28;20044;-60
2023/05/25 02:44:04;;;;;;;11.57;4.15;;;;;;;;;;5000888;28;20048;-60
2023/05/25 02:46:32;;;;;;;9.40;4.18;;;;;;;;;;5033162;28;20040;-61
2023/05/25 02:48:59;;;;;;;13.52;3.97;;;;;;;;;;5044665;28;20311;-60
2023/05/25 02:51:26;;;;;;;10.00;4.40;;;;;;;;;;5044574;28;20036;-60
2023/05/25 02:53:54;;;;;;;8.97;4.30;;;;;;;;;;5010800;28;20046;-60
2023/05/25 02:56:21;;;;;;;8.63;4.40;;;;;;;;;;5010373;28;20056;-61
2023/05/25 02:58:48;;;;;;;12.25;4.60;;;;;;;;;;5024777;28;20048;-61
2023/05/25 03:01:20;;;;;;;10.35;4.38;;;;;;;;;;5038129;28;20407;-61
2023/05/25 03:03:51;;;;;;;8.85;4.07;;;;;;;;;;5009897;28;20033;-61
2023/05/25 03:06:20;;;;;;;9.90;4.45;;;;;;;;;;5028468;28;20045;-60
2023/05/25 03:08:48;;;;;;;11.88;4.57;;;;;;;;;;5021543;28;20092;-61
2023/05/25 03:11:14;;;;;;;9.35;5.28;;;;;;;;;;5030580;28;20402;-60
2023/05/25 03:13:41;;;;;;;11.00;4.70;;;;;;;;;;5027641;28;20049;-61
2023/05/25 03:16:07;;;;;;;10.88;5.05;;;;;;;;;;5005568;28;20060;-61
2023/05/25 03:18:34;;;;;;;11.38;4.78;;;;;;;;;;5017812;28;20061;-61
2023/05/25 03:21:02;;;;;;;16.85;5.95;;;;;;;;;;5037604;28;20053;-60
2023/05/25 03:23:28;;;;;;;15.80;5.10;;;;;;;;;;5028943;28;20063;-59
2023/05/25 03:25:57;;;;;;;10.77;5.00;;;;;;;;;;5005331;28;20498;-60
2023/05/25 03:28:24;;;;;;;12.43;4.88;;;;;;;;;;5027943;28;20559;-60
2023/05/25 03:30:51;;;;;;;15.13;5.30;;;;;;;;;;5032824;28;20490;-60
2023/05/25 03:33:17;;;;;;;12.20;5.00;;;;;;;;;;5017392;28;20036;-60
2023/05/25 03:35:46;;;;;;;16.13;5.45;;;;;;;;;;5024356;28;20029;-60
2023/05/25 03:38:15;;;;;;;15.93;5.20;;;;;;;;;;5007657;28;20471;-60
2023/05/25 03:40:42;;;;;;;13.98;5.65;;;;;;;;;;5036298;28;20040;-60
2023/05/25 03:43:08;;;;;;;16.90;6.10;;;;;;;;;;5013670;28;20041;-60
2023/05/25 03:45:34;;;;;;;13.18;5.20;;;;;;;;;;5026891;28;20547;-60
2023/05/25 03:48:01;;;;;;;13.93;5.60;;;;;;;;;;5020588;28;20044;-60
2023/05/25 03:50:27;;;;;;;13.77;5.07;;;;;;;;;;5029175;28;20486;-60
2023/05/25 03:52:53;;;;;;;11.70;4.93;;;;;;;;;;5015332;28;20060;-59
2023/05/25 03:55:19;;;;;;;15.90;5.47;;;;;;;;;;5031362;28;20045;-60
2023/05/25 03:57:45;;;;;;;13.75;5.22;;;;;;;;;;5039942;28;20403;-60
2023/05/25 04:00:12;;;;;;;13.43;5.25;;;;;;;;;;5038557;28;20048;-59
2023/05/25 04:02:39;;;;;;;15.00;5.18;;;;;;;;;;5032853;28;20356;-60
2023/05/25 04:05:05;;;;;;;23.80;6.70;;;;;;;;;;5040925;28;20041;-60
2023/05/25 04:07:32;;;;;;;16.10;6.13;;;;;;;;;;5035575;28;20037;-60
2023/05/25 04:09:58;;;;;;;16.98;5.88;;;;;;;;;;5037770;28;20029;-60
2023/05/25 04:12:26;;;;;;;14.45;5.28;;;;;;;;;;5023220;28;20105;-59
2023/05/25 04:14:52;;;;;;;16.88;5.80;;;;;;;;;;5023675;28;20029;-60
2023/05/25 04:17:21;;;;;;;17.88;6.35;;;;;;;;;;5038441;28;20057;-59
2023/05/25 04:19:47;;;;;;;17.45;6.00;;;;;;;;;;5043023;28;20427;-59
2023/05/25 04:22:14;;;;;;;18.80;6.55;;;;;;;;;;5024932;28;20582;-59
2023/05/25 04:24:41;;;;;;;17.77;6.63;;;;;;;;;;5039176;28;20048;-60
2023/05/25 04:27:08;;;;;;;20.73;5.70;;;;;;;;;;5009945;28;20034;-59
2023/05/25 04:29:34;;;;;;;19.30;6.90;;;;;;;;;;5038733;28;20051;-59
2023/05/25 04:32:22;;;;;;;13.23;5.53;;;;;;;;;;5032955;28;20036;-59
2023/05/25 04:34:55;;;;;;;17.05;6.18;;;;;;;;;;5043242;28;20030;-60
2023/05/25 04:37:32;;;;;;;19.40;6.85;;;;;;;;;;5042164;28;20386;-59
2023/05/25 04:39:58;;;;;;;16.15;5.72;;;;;;;;;;5026591;28;20046;-60
2023/05/25 04:42:25;;;;;;;18.40;6.40;;;;;;;;;;5042667;28;20407;-60
2023/05/25 04:44:57;;;;;;;21.95;7.13;;;;;;;;;;5031737;28;20446;-60
2023/05/25 04:47:24;;;;;;;14.48;5.88;;;;;;;;;;5033028;28;20051;-60
2023/05/25 04:49:51;;;;;;;15.45;5.90;;;;;;;;;;5033487;28;20514;-58
2023/05/25 04:52:17;;;;;;;15.48;6.82;;;;;;;;;;5030270;28;20048;-60
2023/05/25 04:54:45;;;;;;;22.48;7.25;;;;;;;;;;5040107;28;20033;-59
2023/05/25 04:57:13;;;;;;;18.50;6.20;;;;;;;;;;5028940;28;20043;-60
2023/05/25 04:59:40;;;;;;;15.90;6.80;;;;;;;;;;5016933;28;20037;-60
2023/05/25 05:02:07;;;;;;;16.30;6.57;;;;;;;;;;5014503;28;20032;-61
2023/05/25 05:04:34;;;;;;;20.85;7.20;;;;;;;;;;5037642;28;20049;-60
2023/05/25 05:07:02;;;;;;;25.30;7.97;;;;;;;;;;5037269;28;20116;-59
2023/05/25 05:09:29;;;;;;;21.97;7.27;;;;;;;;;;5022097;28;20056;-60
2023/05/25 05:11:58;;;;;;;20.73;7.77;;;;;;;;;;5022864;28;20761;-60
2023/05/25 05:14:24;;;;;;;30.27;7.53;;;;;;;;;;5043163;28;20029;-60
2023/05/25 05:16:52;;;;;;;22.67;8.10;;;;;;;;;;4996937;28;20033;-59
2023/05/25 05:19:18;;;;;;;19.15;7.53;;;;;;;;;;5044407;28;20056;-60
2023/05/25 05:21:45;;;;;;;19.20;7.97;;;;;;;;;;5030901;28;20029;-59
2023/05/25 05:24:12;;;;;;;21.60;7.90;;;;;;;;;;5024564;28;20050;-60
2023/05/25 05:26:38;;;;;;;19.33;7.70;;;;;;;;;;5028584;28;20052;-60
2023/05/25 05:29:05;;;;;;;22.75;7.43;;;;;;;;;;5039239;28;20510;-58
2023/05/25 05:31:31;;;;;;;25.23;7.40;;;;;;;;;;5033769;28;20491;-60
2023/05/25 05:33:57;;;;;;;21.60;7.85;;;;;;;;;;5046054;28;20041;-59
2023/05/25 05:36:24;;;;;;;20.65;8.02;;;;;;;;;;5026024;28;20021;-60
2023/05/25 05:38:50;;;;;;;29.95;9.35;;;;;;;;;;5038162;28;20045;-59
2023/05/25 05:41:17;;;;;;;22.77;8.55;;;;;;;;;;5028129;28;20029;-59
2023/05/25 05:43:47;;;;;;;33.90;10.35;;;;;;;;;;5042454;28;20036;-60
2023/05/25 05:46:14;;;;;;;28.33;9.23;;;;;;;;;;5024248;28;20037;-60
2023/05/25 05:48:40;;;;;;;22.30;8.50;;;;;;;;;;5036310;28;20033;-60
2023/05/25 05:51:06;;;;;;;23.02;8.27;;;;;;;;;;5035654;28;20028;-60
2023/05/25 05:53:34;;;;;;;21.65;7.78;;;;;;;;;;5033718;28;20041;-59
2023/05/25 05:56:02;;;;;;;22.38;9.02;;;;;;;;;;5033324;28;20116;-59
2023/05/25 05:58:29;;;;;;;27.30;8.15;;;;;;;;;;5033354;28;20033;-60
2023/05/25 06:00:58;;;;;;;21.63;8.85;;;;;;;;;;5035861;28;20041;-60
2023/05/25 06:03:27;;;;;;;30.15;9.38;;;;;;;;;;5030912;28;20048;-60
2023/05/25 06:05:54;;;;;;;33.55;9.95;;;;;;;;;;5018762;28;20506;-59
2023/05/25 06:08:20;;;;;;;34.05;9.85;;;;;;;;;;5037209;28;20376;-59
2023/05/25 06:10:46;;;;;;;25.38;9.77;;;;;;;;;;5031018;28;20049;-59
2023/05/25 06:13:13;;;;;;;26.48;9.68;;;;;;;;;;5034917;28;20040;-61
2023/05/25 06:15:40;;;;;;;31.50;10.95;;;;;;;;;;5013880;28;20060;-61
2023/05/25 06:18:10;;;;;;;31.25;10.52;;;;;;;;;;5039330;28;20048;-61
2023/05/25 06:20:37;;;;;;;21.45;9.95;;;;;;;;;;5031469;28;20030;-61
2023/05/25 06:23:03;;;;;;;27.50;9.45;;;;;;;;;;5035468;28;20053;-61
2023/05/25 06:25:30;;;;;;;24.92;8.63;;;;;;;;;;5041008;28;20060;-59
2023/05/25 06:27:56;;;;;;;25.88;9.88;;;;;;;;;;5036086;28;20029;-59
2023/05/25 06:30:22;;;;;;;29.23;9.35;;;;;;;;;;5037460;28;20037;-59
2023/05/25 06:32:50;;;;;;;35.58;11.07;;;;;;;;;;5039404;28;20040;-61
2023/05/25 06:35:18;;;;;;;30.52;11.30;;;;;;;;;;5038642;28;20467;-60
2023/05/25 06:37:47;;;;;;;39.22;12.32;;;;;;;;;;5046551;28;20033;-60
2023/05/25 06:40:17;;;;;;;31.38;11.10;;;;;;;;;;5028833;28;20041;-60
2023/05/25 06:42:44;;;;;;;36.25;12.23;;;;;;;;;;5040346;28;20029;-60
2023/05/25 06:45:31;;;;;;;34.20;11.82;;;;;;;;;;5042043;28;20045;-60
2023/05/25 06:47:59;;;;;;;34.47;11.65;;;;;;;;;;5038831;28;20025;-60
2023/05/25 06:50:25;;;;;;;29.70;11.65;;;;;;;;;;5035030;28;20045;-60
2023/05/25 06:52:51;;;;;;;28.75;11.30;;;;;;;;;;5039755;28;20360;-59
2023/05/25 06:55:17;;;;;;;37.08;12.02;;;;;;;;;;5041523;28;20028;-59
2023/05/25 06:57:43;;;;;;;43.88;13.55;;;;;;;;;;5040927;28;20036;-58
2023/05/25 07:00:11;;;;;;;37.05;12.65;;;;;;;;;;5041923;28;20041;-60
2023/05/25 07:02:37;;;;;;;43.83;13.77;;;;;;;;;;5040226;28;20506;-60
2023/05/25 07:05:05;;;;;;;35.95;12.95;;;;;;;;;;5040535;28;20044;-60
2023/05/25 07:07:32;;;;;;;39.28;14.13;;;;;;;;;;5041343;28;20059;-60
2023/05/25 07:09:58;;;;;;;33.88;13.00;;;;;;;;;;5040068;28;20041;-60
2023/05/25 07:12:24;;;;;;;40.10;13.98;;;;;;;;;;5040494;28;20036;-60
2023/05/25 07:14:50;;;;;;;35.13;13.23;;;;;;;;;;5039291;28;20032;-60
2023/05/25 07:17:16;;;;;;;46.83;14.10;;;;;;;;;;5038317;28;20052;-60
2023/05/25 07:19:43;;;;;;;37.60;13.52;;;;;;;;;;5037712;28;20053;-59
2023/05/25 07:22:09;;;;;;;35.20;13.45;;;;;;;;;;5039575;28;20036;-60
2023/05/25 07:24:36;;;;;;;45.38;13.73;;;;;;;;;;5034498;28;20057;-60
2023/05/25 07:27:02;;;;;;;46.05;13.82;;;;;;;;;;5038392;28;20032;-59
2023/05/25 07:29:28;;;;;;;48.00;13.77;;;;;;;;;;5040179;28;20052;-60
2023/05/25 07:31:55;;;;;;;45.63;14.60;;;;;;;;;;5044130;28;20383;-59
2023/05/25 07:34:21;;;;;;;43.10;14.73;;;;;;;;;;5039406;28;20041;-59
2023/05/25 07:36:47;;;;;;;39.65;13.68;;;;;;;;;;5042455;28;20025;-59
2023/05/25 07:39:13;;;;;;;42.67;14.48;;;;;;;;;;5047348;28;20039;-59
2023/05/25 07:41:39;;;;;;;37.50;14.80;;;;;;;;;;5040584;28;20509;-61
2023/05/25 07:44:05;;;;;;;48.47;14.20;;;;;;;;;;5043982;28;20036;-62
2023/05/25 07:46:31;;;;;;;41.10;14.48;;;;;;;;;;5037024;28;20040;-59
2023/05/25 07:48:58;;;;;;;43.88;14.18;;;;;;;;;;5037620;28;20056;-59
2023/05/25 07:51:28;;;;;;;41.47;13.23;;;;;;;;;;5040674;28;20045;-59
2023/05/25 07:53:55;;;;;;;;;;;;;;;;;;5047873;28;20041;-60
2023/05/25 07:56:22;;;;;;;35.65;13.25;;;;;;;;;;5034446;28;19909;-61
2023/05/25 07:58:48;;;;;;;31.70;12.90;;;;;;;;;;5035347;28;20025;-60
2023/05/25 08:01:17;;;;;;;39.88;13.77;;;;;;;;;;5038717;28;20479;-59
2023/05/25 08:03:43;;;;;;;29.80;12.57;;;;;;;;;;5049351;28;20033;-60
2023/05/25 08:06:10;;;;;;;38.10;13.70;;;;;;;;;;5040727;28;20037;-60
2023/05/25 08:08:36;;;;;;;39.28;13.82;;;;;;;;;;5039127;28;20041;-59
2023/05/25 08:11:02;;;;;;;28.38;12.18;;;;;;;;;;5019446;28;20045;-59
2023/05/25 08:13:28;;;;;;;39.70;13.68;;;;;;;;;;5035245;28;20037;-59
2023/05/25 08:15:54;;;;;;;31.27;12.15;;;;;;;;;;5035603;28;20033;-59
2023/05/25 08:18:20;;;;;;;33.40;13.48;;;;;;;;;;5041596;28;20040;-60
2023/05/25 08:20:46;;;;;;;33.17;13.85;;;;;;;;;;5036546;28;20045;-60
2023/05/25 08:23:13;;;;;;;36.13;12.75;;;;;;;;;;5038514;28;20045;-60
2023/05/25 08:25:39;;;;;;;35.38;11.98;;;;;;;;;;5038309;28;20038;-60
2023/05/25 08:28:06;;;;;;;25.20;11.63;;;;;;;;;;5041105;28;20034;-60
2023/05/25 08:30:32;;;;;;;30.17;12.95;;;;;;;;;;5042181;28;20552;-60
2023/05/25 08:32:58;;;;;;;27.50;12.07;;;;;;;;;;5040127;28;20042;-60
2023/05/25 08:35:24;;;;;;;27.67;12.68;;;;;;;;;;5042692;28;20048;-59
2023/05/25 08:37:51;;;;;;;27.15;11.88;;;;;;;;;;5045943;28;20044;-60
2023/05/25 08:40:21;;;;;;;28.27;11.95;;;;;;;;;;5040575;28;20033;-60
2023/05/25 08:42:47;;;;;;;29.58;11.32;;;;;;;;;;5038278;28;20052;-60
2023/05/25 08:45:13;;;;;;;30.00;12.75;;;;;;;;;;5037760;28;20049;-60
2023/05/25 08:47:42;;;;;;;22.15;10.82;;;;;;;;;;5040367;28;20405;-61
2023/05/25 08:50:09;;;;;;;22.65;11.45;;;;;;;;;;5038448;28;20466;-60
2023/05/25 08:52:38;;;;;;;22.77;10.55;;;;;;;;;;5038697;28;20052;-60
2023/05/25 08:55:06;;;;;;;22.58;11.20;;;;;;;;;;5035074;28;20041;-60
2023/05/25 08:57:54;;;;;;;28.27;11.48;;;;;;;;;;5039576;28;20029;-60
2023/05/25 09:00:34;;;;;;;24.80;11.68;;;;;;;;;;5036684;28;20033;-60
2023/05/25 09:03:09;;;;;;;25.48;11.35;;;;;;;;;;5037925;28;20057;-60
2023/05/25 09:05:36;;;;;;;21.67;10.65;;;;;;;;;;5037401;28;20044;-60
2023/05/25 09:08:06;;;;;;;21.52;10.90;;;;;;;;;;5038583;28;20421;-60
2023/05/25 09:10:34;;;;;;;22.20;10.95;;;;;;;;;;5038042;28;20040;-60
2023/05/25 09:13:01;;;;;;;23.55;10.85;;;;;;;;;;5044960;28;20040;-60
2023/05/25 09:15:27;;;;;;;20.40;11.27;;;;;;;;;;5037082;28;20029;-60
2023/05/25 09:17:53;;;;;;;20.83;10.23;;;;;;;;;;5037713;28;20045;-59
2023/05/25 09:20:19;;;;;;;21.13;10.32;;;;;;;;;;5036722;28;20356;-61
2023/05/25 09:22:47;;;;;;;25.75;11.00;;;;;;;;;;5037796;28;20082;-59
2023/05/25 09:25:17;;;;;;;26.48;10.77;;;;;;;;;;5041023;28;20395;-61
2023/05/25 09:27:44;;;;;;;26.17;11.32;;;;;;;;;;5037432;28;20040;-61
2023/05/25 09:30:11;;;;;;;22.85;10.23;;;;;;;;;;5039856;28;20044;-61
2023/05/25 09:32:38;;;;;;;18.33;9.93;;;;;;;;;;5036501;28;20569;-61
2023/05/25 09:35:13;;;;;;;21.83;10.27;;;;;;;;;;5040681;28;20029;-59
2023/05/25 09:37:40;;;;;;;21.17;10.25;;;;;;;;;;5040344;28;20037;-60
2023/05/25 09:40:08;;;;;;;20.17;9.48;;;;;;;;;;5042996;28;20056;-60
2023/05/25 09:42:34;;;;;;;22.05;9.95;;;;;;;;;;5044995;28;20052;-60
2023/05/25 09:45:01;;;;;;;20.77;10.43;;;;;;;;;;5033146;28;20391;-59
2023/05/25 09:47:28;;;;;;;17.00;9.60;;;;;;;;;;5036741;28;20045;-60
2023/05/25 09:49:58;;;;;;;19.27;10.18;;;;;;;;;;5044475;28;20036;-61
2023/05/25 09:52:24;;;;;;;18.02;9.43;;;;;;;;;;5037524;28;20490;-61
2023/05/25 09:54:51;;;;;;;19.95;10.70;;;;;;;;;;5042690;28;20056;-61
2023/05/25 09:57:19;;;;;;;18.73;9.40;;;;;;;;;;5036692;28;20042;-60
2023/05/25 09:59:45;;;;;;;19.02;9.85;;;;;;;;;;5035722;28;20045;-61
2023/05/25 10:02:12;;;;;;;14.95;9.40;;;;;;;;;;5036792;28;20127;-60
2023/05/25 10:04:39;;;;;;;17.73;9.70;;;;;;;;;;5033597;28;20029;-60
2023/05/25 10:07:06;;;;;;;14.38;9.20;;;;;;;;;;5023397;28;20029;-62
2023/05/25 10:09:40;;;;;;;15.57;8.63;;;;;;;;;;5028957;28;20044;-62
2023/05/25 10:12:07;;;;;;;17.35;9.82;;;;;;;;;;5035380;28;20401;-61
2023/05/25 10:14:36;;;;;;;16.70;9.50;;;;;;;;;;5034023;28;20078;-61
2023/05/25 10:17:05;;;;;;;16.67;9.20;;;;;;;;;;5037282;28;20052;-61
2023/05/25 10:19:40;;;;;;;15.35;9.23;;;;;;;;;;5034653;28;20039;-59
2023/05/25 10:22:16;;;;;;;16.20;8.80;;;;;;;;;;5033584;28;20036;-59
2023/05/25 10:25:18;;;;;;;15.27;9.43;;;;;;;;;;5042027;28;20032;-59
2023/05/25 10:27:53;;;;;;;18.83;9.18;;;;;;;;;;5039284;28;20037;-57
2023/05/25 10:30:19;;;;;;;15.18;9.20;;;;;;;;;;5046156;28;20047;-59
2023/05/25 10:32:46;;;;;;;18.27;9.73;;;;;;;;;;5035795;28;20041;-58
2023/05/25 10:35:13;;;;;;;14.80;9.13;;;;;;;;;;5041999;28;20029;-58
2023/05/25 10:37:40;;;;;;;14.90;9.45;;;;;;;;;;5034110;28;20045;-58
2023/05/25 10:40:09;;;;;;;17.08;8.40;;;;;;;;;;5034318;28;20053;-59
2023/05/25 10:42:36;;;;;;;14.90;9.43;;;;;;;;;;5037797;28;20045;-58
2023/05/25 10:45:07;;;;;;;12.43;8.80;;;;;;;;;;5035083;28;20045;-59
2023/05/25 10:47:36;;;;;;;15.35;8.55;;;;;;;;;;5035902;28;20040;-59
2023/05/25 10:50:03;;;;;;;15.38;9.27;;;;;;;;;;5041817;28;20041;-58
2023/05/25 10:52:30;;;;;;;15.98;9.32;;;;;;;;;;5040735;28;20052;-58
2023/05/25 10:55:00;;;;;;;19.63;9.30;;;;;;;;;;5034576;28;20052;-59
2023/05/25 10:57:27;;;;;;;17.20;9.35;;;;;;;;;;5031594;28;20029;-59
2023/05/25 11:00:00;;;;;;;17.52;9.05;;;;;;;;;;5032382;28;20043;-58
2023/05/25 11:02:28;;;;;;;19.67;10.80;;;;;;;;;;5045362;28;20029;-59
2023/05/25 11:05:21;;;;;;;15.95;8.75;;;;;;;;;;5042321;28;20044;-59
2023/05/25 11:07:52;;;;;;;15.65;8.75;;;;;;;;;;5039474;28;20116;-58
2023/05/25 11:10:43;;;;;;;14.13;8.73;;;;;;;;;;5042100;28;20132;-59
2023/05/25 11:13:21;;;;;;;16.05;8.70;;;;;;;;;;5030416;28;20514;-59
2023/05/25 11:16:08;;;;;;;13.65;8.50;;;;;;;;;;5033862;28;20033;-59
2023/05/25 11:18:40;;;;;;;14.45;8.45;;;;;;;;;;5045959;28;20063;-59
2023/05/25 11:21:20;;;;;;;15.32;8.77;;;;;;;;;;5032904;28;20041;-59
2023/05/25 11:24:10;;;;;;;19.08;9.25;;;;;;;;;;5032703;28;20057;-59
2023/05/25 11:26:36;;;;;;;16.42;8.60;;;;;;;;;;5039002;28;20033;-57
2023/05/25 11:29:14;;;;;;;13.80;8.50;;;;;;;;;;5039193;28;20046;-57
2023/05/25 11:31:40;;;;;;;18.88;9.25;;;;;;;;;;5042429;28;20062;-57
2023/05/25 11:34:08;;;;;;;16.73;8.98;;;;;;;;;;5037910;28;20049;-57
2023/05/25 11:36:35;;;;;;;19.30;8.93;;;;;;;;;;5035543;28;20032;-58
2023/05/25 11:39:03;;;;;;;17.88;9.25;;;;;;;;;;5037678;28;20446;-57
2023/05/25 11:41:31;;;;;;;20.45;9.13;;;;;;;;;;5034546;28;20049;-57
2023/05/25 11:44:05;;;;;;;16.38;8.90;;;;;;;;;;5035562;28;20052;-57
2023/05/25 11:46:33;;;;;;;15.45;9.07;;;;;;;;;;5039823;28;20033;-58
2023/05/25 11:49:00;;;;;;;16.77;9.25;;;;;;;;;;5032974;28;20401;-58
2023/05/25 11:51:28;;;;;;;14.05;9.48;;;;;;;;;;5035210;28;20045;-58
2023/05/25 11:53:55;;;;;;;18.00;8.75;;;;;;;;;;5037182;28;20045;-58
2023/05/25 11:56:22;;;;;;;14.77;8.77;;;;;;;;;;5037447;28;20538;-58
2023/05/25 11:58:51;;;;;;;18.80;8.75;;;;;;;;;;5043328;28;20044;-58
2023/05/25 12:01:22;;;;;;;15.27;8.60;;;;;;;;;;5037342;28;20034;-58
2023/05/25 12:03:55;;;;;;;16.45;9.45;;;;;;;;;;5044130;28;20513;-57
2023/05/25 12:06:32;;;;;;;19.27;9.40;;;;;;;;;;5037943;28;20395;-57
2023/05/25 12:09:00;;;;;;;15.13;8.43;;;;;;;;;;5038943;28;20093;-58
2023/05/25 12:11:32;;;;;;;13.70;7.93;;;;;;;;;;5040108;28;20048;-57
2023/05/25 12:13:59;;;;;;;15.05;8.68;;;;;;;;;;5045135;28;20376;-59
2023/05/25 12:16:25;;;;;;;16.58;9.18;;;;;;;;;;5044060;28;20499;-60
2023/05/25 12:18:52;;;;;;;17.92;8.77;;;;;;;;;;5037212;28;20041;-58
2023/05/25 12:21:20;;;;;;;18.40;8.57;;;;;;;;;;5035422;28;20049;-58
2023/05/25 12:23:47;;;;;;;16.65;8.65;;;;;;;;;;5039340;28;20487;-59
2023/05/25 12:26:16;;;;;;;20.35;9.60;;;;;;;;;;5040119;28;20052;-61
2023/05/25 12:29:02;;;;;;;18.37;8.90;;;;;;;;;;5037991;28;20036;-61
2023/05/25 12:31:35;;;;;;;14.93;9.15;;;;;;;;;;5037634;28;20263;-61
2023/05/25 12:34:05;;;;;;;14.95;8.50;;;;;;;;;;5024716;28;20056;-59
2023/05/25 12:36:38;;;;;;;;;;;;;;;;;;5053473;28;20048;-60
2023/05/25 12:39:05;;;;;;;14.00;7.88;;;;;;;;;;5040433;28;19908;-57
2023/05/25 12:41:41;;;;;;;12.48;8.38;;;;;;;;;;5041729;28;20041;-60
2023/05/25 12:44:20;;;;;;;19.63;9.55;;;;;;;;;;5043767;28;20044;-60
2023/05/25 12:46:47;;;;;;;11.50;8.57;;;;;;;;;;5043836;28;20032;-61
2023/05/25 12:49:33;;;;;;;16.80;8.10;;;;;;;;;;5040861;28;20780;-60
2023/05/25 12:52:04;;;;;;;14.43;8.80;;;;;;;;;;5041359;28;20049;-60
2023/05/25 12:54:34;;;;;;;14.93;9.10;;;;;;;;;;5041492;28;20418;-61
2023/05/25 12:57:01;;;;;;;13.27;8.90;;;;;;;;;;5043157;28;20025;-60
2023/05/25 12:59:29;;;;;;;16.25;8.23;;;;;;;;;;5037656;28;20422;-61
2023/05/25 13:01:56;;;;;;;15.80;9.02;;;;;;;;;;5045111;28;20037;-60
2023/05/25 13:04:22;;;;;;;16.45;9.02;;;;;;;;;;5032839;28;20038;-60
2023/05/25 13:06:48;;;;;;;19.58;9.40;;;;;;;;;;5044394;28;20025;-60
2023/05/25 13:09:15;;;;;;;15.90;8.23;;;;;;;;;;5037646;28;20049;-63
2023/05/25 13:11:41;;;;;;;15.25;8.32;;;;;;;;;;5036026;28;20024;-63
2023/05/25 13:14:07;;;;;;;17.05;9.15;;;;;;;;;;5034357;28;20048;-63
2023/05/25 13:16:34;;;;;;;17.33;7.90;;;;;;;;;;5038972;28;20047;-63
2023/05/25 13:19:01;;;;;;;15.32;8.20;;;;;;;;;;5040526;28;20441;-63
2023/05/25 13:21:27;;;;;;;12.98;7.88;;;;;;;;;;5041611;28;20036;-63
2023/05/25 13:23:53;;;;;;;14.80;8.18;;;;;;;;;;5020096;28;20032;-63
2023/05/25 13:26:19;;;;;;;16.30;8.85;;;;;;;;;;5043909;28;20056;-62
2023/05/25 13:28:48;;;;;;;14.27;8.10;;;;;;;;;;5042399;28;20032;-64
2023/05/25 13:31:14;;;;;;;15.47;7.57;;;;;;;;;;5039097;28;20037;-64
2023/05/25 13:33:40;;;;;;;13.82;7.95;;;;;;;;;;5038791;28;20037;-63
2023/05/25 13:36:06;;;;;;;17.02;8.00;;;;;;;;;;5039993;28;20064;-63
2023/05/25 13:38:34;;;;;;;14.50;8.23;;;;;;;;;;5039639;28;20399;-63
2023/05/25 13:41:01;;;;;;;17.95;7.90;;;;;;;;;;5040701;28;20041;-64
2023/05/25 13:43:27;;;;;;;15.80;7.78;;;;;;;;;;5043133;28;20045;-63
2023/05/25 13:45:54;;;;;;;15.20;8.25;;;;;;;;;;5042230;28;20025;-63
2023/05/25 13:48:20;;;;;;;12.65;7.70;;;;;;;;;;5036402;28;20037;-62
2023/05/25 13:50:48;;;;;;;59.25;14.82;;;;;;;;;;5024518;28;20375;-61
2023/05/25 13:53:14;;;;;;;18.27;8.38;;;;;;;;;;5032074;28;20053;-61
2023/05/25 13:55:41;;;;;;;20.23;8.23;;;;;;;;;;5041537;28;20039;-61
2023/05/25 13:58:08;;;;;;;13.63;7.80;;;;;;;;;;5044035;28;20044;-62
2023/05/25 14:00:35;;;;;;;16.23;7.43;;;;;;;;;;5037765;28;20052;-61
2023/05/25 14:03:01;;;;;;;13.18;7.50;;;;;;;;;;5045127;28;20033;-61
2023/05/25 14:05:29;;;;;;;15.95;7.63;;;;;;;;;;5039584;28;20390;-62
2023/05/25 14:07:55;;;;;;;16.70;8.05;;;;;;;;;;5043819;28;20403;-62
2023/05/25 14:10:22;;;;;;;11.50;7.65;;;;;;;;;;5040321;28;20103;-60
2023/05/25 14:12:48;;;;;;;15.35;7.55;;;;;;;;;;5035843;28;20672;-62
2023/05/25 14:15:14;;;;;;;16.05;7.47;;;;;;;;;;5036689;28;20033;-61
2023/05/25 14:17:41;;;;;;;13.35;7.18;;;;;;;;;;5035440;28;20021;-62
2023/05/25 14:20:08;;;;;;;15.70;7.32;;;;;;;;;;5041672;28;20053;-62
2023/05/25 14:22:34;;;;;;;12.98;7.88;;;;;;;;;;5045138;28;20467;-61
2023/05/25 14:25:00;;;;;;;16.23;7.97;;;;;;;;;;5045283;28;20037;-62
2023/05/25 14:27:26;;;;;;;14.45;8.10;;;;;;;;;;5044851;28;20040;-65
2023/05/25 14:29:53;;;;;;;15.07;7.88;;;;;;;;;;5042151;28;20029;-62
2023/05/25 14:32:19;;;;;;;13.73;7.53;;;;;;;;;;5036040;28;20037;-62
2023/05/25 14:34:45;;;;;;;13.00;7.50;;;;;;;;;;5034613;28;20455;-62